Glendo, Wyoming
Current Conditions -  °F | °C
As of 4:35 PM on Saturday 22 Nov 2014 (Local Time) from KGUR Reporting Station
Overcast Overcast  
Wind Chill: 54°   Ceiling: 11000
Heat Index: 54°   Visibility: 10mi
Dew Point: 35°   Wind: 14mph
Humidity: 47%   Direction: 240°WSW
Pressure: 29.54"   Gusts: 26mph
Location:  42.5°N, 105.03°W
Report Text: KGUR 222335Z AUTO 24012G23KT 200V260 10SM SCT085 OVC110 12/01 A2954 RMK AO2 T01240014
Loading
Personal Weather Stations






























Interactive Weather Map New forecast layout! Learn more

10-Day Weather Forecast

Advertisements
Track Severe Weather on mobile